Time;durP1;ratioP1;P1;durP2;ratioP2;P2;SDS_P1;SDS_P2;PMS_P1;PMS_P2;Temp;Humidity;BMP_temperature;BMP_pressure;BME280_temperature;BME280_humidity;BME280_pressure;Samples;Min_cycle;Max_cycle;Signal;HPM_P1;HPM_P2
2022/03/09 00:01:19;;;;;;;;;;;2.40;99.90;;;;;;5031992;28;19963;-78
2022/03/09 00:03:46;;;;;;;;;;;2.40;99.90;;;;;;5031419;28;19925;-77
2022/03/09 00:06:12;;;;;;;;;;;2.30;99.90;;;;;;5032032;28;19948;-77
2022/03/09 00:08:39;;;;;;;;;;;2.30;99.90;;;;;;5031266;28;19933;-78
2022/03/09 00:11:05;;;;;;;;;;;2.30;99.90;;;;;;5031578;28;19925;-76
2022/03/09 00:13:32;;;;;;;;;;;2.30;99.90;;;;;;5031595;28;19925;-81
2022/03/09 00:15:58;;;;;;;;;;;2.30;99.90;;;;;;5031706;28;20368;-77
2022/03/09 00:18:25;;;;;;;;;;;2.20;99.90;;;;;;5031468;28;19925;-78
2022/03/09 00:20:52;;;;;;;;;;;2.20;99.90;;;;;;5031378;28;19929;-78
2022/03/09 00:23:18;;;;;;;;;;;2.20;99.90;;;;;;5032223;28;19925;-78
2022/03/09 00:25:45;;;;;;;;;;;2.20;99.90;;;;;;5031155;28;19925;-78
2022/03/09 00:28:11;;;;;;;;;;;2.20;99.90;;;;;;5032150;28;19936;-78
2022/03/09 00:30:38;;;;;;;;;;;2.20;99.90;;;;;;5034508;28;19956;-78
2022/03/09 00:33:04;;;;;;;;;;;2.20;99.90;;;;;;5032087;28;20380;-77
2022/03/09 00:35:31;;;;;;;;;;;2.20;99.90;;;;;;5031220;28;20399;-77
2022/03/09 00:37:58;;;;;;;;;;;2.10;99.90;;;;;;5031180;28;19929;-78
2022/03/09 00:40:24;;;;;;;;;;;2.10;99.90;;;;;;5038236;28;19940;-79
2022/03/09 00:42:51;;;;;;;;;;;2.00;99.90;;;;;;5031966;28;19925;-78
2022/03/09 00:45:17;;;;;;;;;;;2.00;99.90;;;;;;5031406;28;19935;-78
2022/03/09 00:47:44;;;;;;;;;;;2.00;99.90;;;;;;5036436;28;20286;-79
2022/03/09 00:50:10;;;;;;;;;;;2.00;99.90;;;;;;5033221;28;20291;-78
2022/03/09 00:52:37;;;;;;;;;;;2.00;99.90;;;;;;5031071;28;20348;-81
2022/03/09 00:55:03;;;;;;;;;;;2.00;99.90;;;;;;5032457;28;20361;-78
2022/03/09 00:57:30;;;;;;;;;;;2.10;99.90;;;;;;5031822;28;19929;-78
2022/03/09 00:59:56;;;;;;;;;;;2.00;99.90;;;;;;5035130;28;19928;-76
2022/03/09 01:02:23;;;;;;;;;;;2.00;99.90;;;;;;5037146;28;19925;-77
2022/03/09 01:04:49;;;;;;;;;;;2.00;99.90;;;;;;5031581;28;19937;-78
2022/03/09 01:07:16;;;;;;;;;;;1.90;99.90;;;;;;5030565;28;20288;-78
2022/03/09 01:09:42;;;;;;;;;;;1.90;99.90;;;;;;5040308;28;19929;-78
2022/03/09 01:12:09;;;;;;;;;;;1.90;99.90;;;;;;5032089;28;19932;-78
2022/03/09 01:14:35;;;;;;;;;;;1.90;99.90;;;;;;5034344;28;19925;-79
2022/03/09 01:17:02;;;;;;;;;;;1.90;99.90;;;;;;5036811;28;19926;-78
2022/03/09 01:19:29;;;;;;;;;;;1.90;99.90;;;;;;5035725;28;19929;-78
2022/03/09 01:21:55;;;;;;;;;;;1.80;99.90;;;;;;5031109;28;19925;-78
2022/03/09 01:24:22;;;;;;;;;;;1.80;99.90;;;;;;5031053;28;19932;-78
2022/03/09 01:26:48;;;;;;;;;;;1.80;99.90;;;;;;5031080;28;19929;-77
2022/03/09 01:29:15;;;;;;;;;;;1.80;99.90;;;;;;5031231;28;19932;-78
2022/03/09 01:31:41;;;;;;;;;;;1.80;99.90;;;;;;5031418;28;19925;-79
2022/03/09 01:34:08;;;;;;;;;;;1.70;99.90;;;;;;5038082;28;19933;-81
2022/03/09 01:36:34;;;;;;;;;;;1.70;99.90;;;;;;5031681;28;19952;-78
2022/03/09 01:39:01;;;;;;;;;;;1.70;99.90;;;;;;5031056;28;19929;-78
2022/03/09 01:41:28;;;;;;;;;;;1.70;99.90;;;;;;5031089;28;19925;-78
2022/03/09 01:43:54;;;;;;;;;;;1.70;99.90;;;;;;5036159;28;20387;-77
2022/03/09 01:46:21;;;;;;;;;;;1.60;99.90;;;;;;5034924;28;19933;-78
2022/03/09 01:48:47;;;;;;;;;;;1.60;99.90;;;;;;5032068;28;19932;-78
2022/03/09 01:51:14;;;;;;;;;;;1.60;99.90;;;;;;5030879;28;19993;-78
2022/03/09 01:53:40;;;;;;;;;;;1.60;99.90;;;;;;5030338;28;19925;-82
2022/03/09 01:56:07;;;;;;;;;;;1.50;99.90;;;;;;5030182;28;19926;-78
2022/03/09 01:58:33;;;;;;;;;;;1.50;99.90;;;;;;5031538;28;19980;-78
2022/03/09 02:01:00;;;;;;;;;;;1.50;99.90;;;;;;5029976;28;19929;-78
2022/03/09 02:03:26;;;;;;;;;;;1.50;99.90;;;;;;5031743;28;19925;-78
2022/03/09 02:05:53;;;;;;;;;;;1.50;99.90;;;;;;5034343;28;19925;-78
2022/03/09 02:11:03;;;;;;;;;;;1.50;99.90;;;;;;5033392;28;19929;-80
2022/03/09 02:13:30;;;;;;;;;;;1.40;99.90;;;;;;5034234;28;19935;-79
2022/03/09 02:15:56;;;;;;;;;;;1.30;99.90;;;;;;5033196;28;19933;-78
2022/03/09 02:18:23;;;;;;;;;;;1.30;99.90;;;;;;5033761;28;19925;-78
2022/03/09 02:20:49;;;;;;;;;;;1.20;99.90;;;;;;5037067;28;19925;-78
2022/03/09 02:23:16;;;;;;;;;;;1.20;99.90;;;;;;5034158;28;19952;-78
2022/03/09 02:25:43;;;;;;;;;;;1.20;99.90;;;;;;5033791;28;19925;-82
2022/03/09 02:28:09;;;;;;;;;;;1.10;99.90;;;;;;5033311;28;20020;-78
2022/03/09 02:30:36;;;;;;;;;;;1.10;99.90;;;;;;5034230;28;19936;-78
2022/03/09 02:33:03;;;;;;;;;;;1.10;99.90;;;;;;5033311;28;19951;-78
2022/03/09 02:35:29;;;;;;;;;;;1.00;99.90;;;;;;5046114;28;19933;-79
2022/03/09 02:37:56;;;;;;;;;;;1.00;99.90;;;;;;5034120;28;19929;-78
2022/03/09 02:40:22;;;;;;;;;;;1.00;99.90;;;;;;5033476;28;19925;-79
2022/03/09 02:42:49;;;;;;;;;;;1.00;99.90;;;;;;5033191;28;19929;-79
2022/03/09 02:45:15;;;;;;;;;;;1.00;99.90;;;;;;5034181;28;19929;-81
2022/03/09 02:47:42;;;;;;;;;;;1.00;99.90;;;;;;5036625;28;20268;-79
2022/03/09 02:50:08;;;;;;;;;;;1.00;99.90;;;;;;5032835;28;20335;-79
2022/03/09 02:52:35;;;;;;;;;;;1.00;99.90;;;;;;5035917;28;20275;-79
2022/03/09 02:55:01;;;;;;;;;;;1.00;99.90;;;;;;5032980;28;19932;-77
2022/03/09 02:57:28;;;;;;;;;;;1.00;99.90;;;;;;5033176;28;19925;-82
2022/03/09 02:59:55;;;;;;;;;;;1.00;99.90;;;;;;5032773;28;19929;-78
2022/03/09 03:02:21;;;;;;;;;;;1.00;99.90;;;;;;5034308;28;19968;-78
2022/03/09 03:04:48;;;;;;;;;;;1.00;99.90;;;;;;5032763;28;19925;-80
2022/03/09 03:07:14;;;;;;;;;;;0.90;99.90;;;;;;5032738;28;20379;-79
2022/03/09 03:09:41;;;;;;;;;;;1.00;99.90;;;;;;5034496;28;19925;-79
2022/03/09 03:12:07;;;;;;;;;;;0.90;99.90;;;;;;5035912;28;19928;-78
2022/03/09 03:14:34;;;;;;;;;;;0.90;99.90;;;;;;5052992;28;20000;-79
2022/03/09 03:17:00;;;;;;;;;;;0.90;99.90;;;;;;5034936;28;19932;-79
2022/03/09 03:19:27;;;;;;;;;;;0.90;99.90;;;;;;5036420;28;19932;-79
2022/03/09 03:21:53;;;;;;;;;;;0.80;99.90;;;;;;5035737;28;19931;-79
2022/03/09 03:24:20;;;;;;;;;;;0.80;99.90;;;;;;5039157;28;19924;-79
2022/03/09 03:26:46;;;;;;;;;;;0.80;99.90;;;;;;5039781;28;19925;-79
2022/03/09 03:29:13;;;;;;;;;;;0.80;99.90;;;;;;5035953;28;19932;-77
2022/03/09 03:31:39;;;;;;;;;;;0.80;99.90;;;;;;5040423;28;19929;-79
2022/03/09 03:34:06;;;;;;;;;;;0.80;99.90;;;;;;5034942;28;19942;-79
2022/03/09 03:36:33;;;;;;;;;;;0.80;99.90;;;;;;5053336;28;19932;-81
2022/03/09 03:38:59;;;;;;;;;;;0.80;99.90;;;;;;5047974;28;19928;-79
2022/03/09 03:41:26;;;;;;;;;;;0.80;99.90;;;;;;5040232;28;19924;-78
2022/03/09 03:43:52;;;;;;;;;;;0.70;99.90;;;;;;5046755;28;20348;-81
2022/03/09 03:46:19;;;;;;;;;;;0.70;99.90;;;;;;5053638;28;19932;-80
2022/03/09 03:48:45;;;;;;;;;;;0.60;99.90;;;;;;5051559;28;19925;-78
2022/03/09 03:51:12;;;;;;;;;;;0.60;99.90;;;;;;5035686;28;19936;-78
2022/03/09 03:53:38;;;;;;;;;;;0.60;99.90;;;;;;5062983;28;19932;-78
2022/03/09 03:56:05;;;;;;;;;;;0.60;99.90;;;;;;5034054;28;19932;-79
2022/03/09 03:58:31;;;;;;;;;;;0.50;99.90;;;;;;5045126;28;20272;-77
2022/03/09 04:00:58;;;;;;;;;;;0.50;99.90;;;;;;5042446;28;20375;-78
2022/03/09 04:03:24;;;;;;;;;;;0.50;99.90;;;;;;5058636;28;19925;-79
2022/03/09 04:05:51;;;;;;;;;;;0.40;99.90;;;;;;5034847;28;19932;-82
2022/03/09 04:08:17;;;;;;;;;;;0.40;99.90;;;;;;5036462;28;19925;-77
2022/03/09 04:10:44;;;;;;;;;;;0.40;99.90;;;;;;5052461;28;19944;-78
2022/03/09 04:13:10;;;;;;;;;;;0.40;99.90;;;;;;5052318;28;19924;-78
2022/03/09 04:15:37;;;;;;;;;;;0.40;99.90;;;;;;5035113;28;19924;-79
2022/03/09 04:18:03;;;;;;;;;;;0.30;99.90;;;;;;5034320;28;19948;-78
2022/03/09 04:20:30;;;;;;;;;;;0.30;99.90;;;;;;5034358;28;20319;-78
2022/03/09 04:22:56;;;;;;;;;;;0.20;99.90;;;;;;5034236;28;19932;-77
2022/03/09 04:25:23;;;;;;;;;;;0.30;99.90;;;;;;5052880;28;19931;-78
2022/03/09 04:27:50;;;;;;;;;;;0.20;99.90;;;;;;5034054;28;19928;-76
2022/03/09 04:30:16;;;;;;;;;;;0.20;99.90;;;;;;5038494;28;19931;-78
2022/03/09 04:32:43;;;;;;;;;;;0.20;99.90;;;;;;5052682;28;19972;-78
2022/03/09 04:35:09;;;;;;;;;;;0.20;99.90;;;;;;5051908;28;19932;-78
2022/03/09 04:37:36;;;;;;;;;;;0.20;99.90;;;;;;5034935;28;20007;-76
2022/03/09 04:40:02;;;;;;;;;;;0.20;99.90;;;;;;5034173;28;20443;-79
2022/03/09 04:42:29;;;;;;;;;;;0.10;99.90;;;;;;5034612;28;19925;-78
2022/03/09 04:44:56;;;;;;;;;;;0.20;99.90;;;;;;5034213;28;20142;-80
2022/03/09 04:47:22;;;;;;;;;;;0.20;99.90;;;;;;5038027;28;19925;-78
2022/03/09 04:49:50;;;;;;;;;;;0.20;99.90;;;;;;5035002;28;20015;-79
2022/03/09 04:52:17;;;;;;;;;;;0.20;99.90;;;;;;5034370;28;19964;-78
2022/03/09 04:54:44;;;;;;;;;;;0.20;99.90;;;;;;5034800;28;19925;-78
2022/03/09 04:57:10;;;;;;;;;;;0.20;99.90;;;;;;5033644;28;19951;-76
2022/03/09 04:59:37;;;;;;;;;;;0.20;99.90;;;;;;5043655;28;19931;-80
2022/03/09 05:02:03;;;;;;;;;;;0.10;99.90;;;;;;5037933;28;19925;-78
2022/03/09 05:04:30;;;;;;;;;;;0.10;99.90;;;;;;5038948;28;19924;-78
2022/03/09 05:06:56;;;;;;;;;;;0.10;99.90;;;;;;5033783;28;20647;-82
2022/03/09 05:09:23;;;;;;;;;;;0.10;99.90;;;;;;5034264;28;19925;-77
2022/03/09 05:11:49;;;;;;;;;;;0.00;99.90;;;;;;5034208;28;19929;-78
2022/03/09 05:14:16;;;;;;;;;;;-0.10;99.90;;;;;;5037719;28;20113;-78
2022/03/09 05:16:42;;;;;;;;;;;-0.10;99.90;;;;;;5045299;28;20296;-78
2022/03/09 05:19:09;;;;;;;;;;;-0.10;99.90;;;;;;5033891;28;20368;-78
2022/03/09 05:21:35;;;;;;;;;;;-0.10;99.90;;;;;;5034212;28;20372;-78
2022/03/09 05:24:02;;;;;;;;;;;-0.10;99.90;;;;;;5033787;28;20360;-78
2022/03/09 05:26:28;;;;;;;;;;;-0.10;99.90;;;;;;5033445;28;20376;-78
2022/03/09 05:28:57;;;;;;;;;;;-0.10;99.90;;;;;;5034381;28;20380;-78
2022/03/09 05:31:23;;;;;;;;;;;-0.10;99.90;;;;;;5051839;28;19932;-78
2022/03/09 05:33:50;;;;;;;;;;;-0.10;99.90;;;;;;5037847;28;19939;-78
2022/03/09 05:36:17;;;;;;;;;;;-0.20;99.90;;;;;;5032789;28;19924;-79
2022/03/09 05:38:43;;;;;;;;;;;-0.10;99.90;;;;;;5053406;28;19924;-77
2022/03/09 05:41:10;;;;;;;;;;;-0.10;99.90;;;;;;5037668;28;19925;-77
2022/03/09 05:43:36;;;;;;;;;;;-0.20;99.90;;;;;;5065947;28;19932;-77
2022/03/09 05:46:03;;;;;;;;;;;-0.20;99.90;;;;;;5036947;28;19924;-79
2022/03/09 05:48:29;;;;;;;;;;;-0.20;99.90;;;;;;5049111;28;19932;-75
2022/03/09 05:50:56;;;;;;;;;;;-0.20;99.90;;;;;;5044164;28;19931;-78
2022/03/09 05:53:22;;;;;;;;;;;-0.20;99.90;;;;;;5046769;28;19932;-79
2022/03/09 05:55:49;;;;;;;;;;;-0.20;99.90;;;;;;5037401;28;19931;-79
2022/03/09 05:58:15;;;;;;;;;;;-0.20;99.90;;;;;;5037568;28;20372;-78
2022/03/09 06:00:42;;;;;;;;;;;-0.20;99.90;;;;;;5063048;28;20384;-79
2022/03/09 06:03:08;;;;;;;;;;;-0.20;99.90;;;;;;5037382;28;19925;-79
2022/03/09 06:05:35;;;;;;;;;;;-0.20;99.90;;;;;;5037913;28;19931;-78
2022/03/09 06:08:02;;;;;;;;;;;-0.20;99.90;;;;;;5036441;28;19936;-83
2022/03/09 06:10:28;;;;;;;;;;;-0.20;99.90;;;;;;5034403;28;19933;-78
2022/03/09 06:12:55;;;;;;;;;;;-0.20;99.90;;;;;;5034234;28;19925;-79
2022/03/09 06:15:21;;;;;;;;;;;-0.20;99.90;;;;;;5033785;28;19932;-79
2022/03/09 06:17:48;;;;;;;;;;;-0.20;99.90;;;;;;5033984;28;19925;-80
2022/03/09 06:20:14;;;;;;;;;;;-0.20;99.90;;;;;;5033413;28;19925;-80
2022/03/09 06:22:41;;;;;;;;;;;-0.10;99.90;;;;;;5034293;28;19925;-79
2022/03/09 06:25:07;;;;;;;;;;;-0.10;99.90;;;;;;5035818;28;19931;-80
2022/03/09 06:27:34;;;;;;;;;;;-0.10;99.90;;;;;;5039963;28;19932;-79
2022/03/09 06:30:00;;;;;;;;;;;-0.10;99.90;;;;;;5039964;28;20007;-82
2022/03/09 06:32:27;;;;;;;;;;;-0.10;99.90;;;;;;5039359;28;21792;-79
2022/03/09 06:34:53;;;;;;;;;;;0.00;99.90;;;;;;5043564;28;19932;-79
2022/03/09 06:37:20;;;;;;;;;;;0.10;99.90;;;;;;5036214;28;19929;-79
2022/03/09 06:39:46;;;;;;;;;;;0.20;99.90;;;;;;5039319;28;19925;-78
2022/03/09 06:42:13;;;;;;;;;;;0.40;99.90;;;;;;5035229;28;19926;-78
2022/03/09 06:44:40;;;;;;;;;;;0.50;99.90;;;;;;5033865;28;19925;-80
2022/03/09 06:47:06;;;;;;;;;;;0.70;99.90;;;;;;5040763;28;19947;-80
2022/03/09 06:49:33;;;;;;;;;;;0.80;99.90;;;;;;5035725;28;20292;-80
2022/03/09 06:51:59;;;;;;;;;;;1.00;99.90;;;;;;5033556;28;20008;-81
2022/03/09 06:54:27;;;;;;;;;;;1.20;99.90;;;;;;5032963;28;19932;-79
2022/03/09 06:56:54;;;;;;;;;;;1.40;99.90;;;;;;5033552;28;19953;-80
2022/03/09 06:59:20;;;;;;;;;;;1.50;99.90;;;;;;5032993;28;19932;-79
2022/03/09 07:01:47;;;;;;;;;;;1.60;99.90;;;;;;5033038;28;20327;-80
2022/03/09 07:04:13;;;;;;;;;;;1.90;99.90;;;;;;5032544;28;19932;-80
2022/03/09 07:06:40;;;;;;;;;;;2.00;99.90;;;;;;5032421;28;20304;-80
2022/03/09 07:09:06;;;;;;;;;;;2.20;99.90;;;;;;5032634;28;20261;-78
2022/03/09 07:11:33;;;;;;;;;;;2.40;99.90;;;;;;5044392;28;19931;-79
2022/03/09 07:13:59;;;;;;;;;;;2.50;99.90;;;;;;5052557;28;19929;-79
2022/03/09 07:16:26;;;;;;;;;;;2.70;99.90;;;;;;5035396;28;19935;-80
2022/03/09 07:18:52;;;;;;;;;;;2.90;99.90;;;;;;5033059;28;19936;-79
2022/03/09 07:21:19;;;;;;;;;;;3.10;99.90;;;;;;5032529;28;19983;-79
2022/03/09 07:23:45;;;;;;;;;;;3.30;99.90;;;;;;5042184;28;19933;-75
2022/03/09 07:26:12;;;;;;;;;;;3.40;99.90;;;;;;5032116;28;20368;-80
2022/03/09 07:28:38;;;;;;;;;;;3.40;99.90;;;;;;5040993;28;19936;-79
2022/03/09 07:31:05;;;;;;;;;;;3.60;99.90;;;;;;5034213;28;19925;-81
2022/03/09 07:33:31;;;;;;;;;;;3.70;99.90;;;;;;5032627;28;19929;-79
2022/03/09 07:36:00;;;;;;;;;;;3.70;99.90;;;;;;5032323;28;19940;-79
2022/03/09 07:38:26;;;;;;;;;;;3.90;99.90;;;;;;5032088;28;19925;-80
2022/03/09 07:40:53;;;;;;;;;;;4.00;99.90;;;;;;5041938;28;19931;-76
2022/03/09 07:43:19;;;;;;;;;;;4.10;99.90;;;;;;5032925;28;19932;-77
2022/03/09 07:45:46;;;;;;;;;;;4.10;99.90;;;;;;5032164;28;19929;-77
2022/03/09 07:48:12;;;;;;;;;;;4.30;99.90;;;;;;5045854;28;19929;-76
2022/03/09 07:50:39;;;;;;;;;;;4.40;99.90;;;;;;5032613;28;19926;-75
2022/03/09 07:53:05;;;;;;;;;;;4.60;99.90;;;;;;5032394;28;19932;-76
2022/03/09 07:55:32;;;;;;;;;;;4.60;99.90;;;;;;5031916;28;19929;-76
2022/03/09 07:57:58;;;;;;;;;;;4.70;99.90;;;;;;5031580;28;20303;-79
2022/03/09 08:00:25;;;;;;;;;;;4.90;99.90;;;;;;5036292;28;19929;-80
2022/03/09 08:02:52;;;;;;;;;;;5.00;99.90;;;;;;5031856;28;19951;-76
2022/03/09 08:05:18;;;;;;;;;;;5.10;99.90;;;;;;5031835;28;20011;-77
2022/03/09 08:07:45;;;;;;;;;;;5.20;99.90;;;;;;5031991;28;19932;-78
2022/03/09 08:10:12;;;;;;;;;;;5.40;99.90;;;;;;5034708;28;19979;-79
2022/03/09 08:12:38;;;;;;;;;;;5.60;99.90;;;;;;5035336;28;19925;-79
2022/03/09 08:15:05;;;;;;;;;;;5.70;99.80;;;;;;5048574;28;19925;-78
2022/03/09 08:17:31;;;;;;;;;;;5.80;99.20;;;;;;5039612;28;20132;-79
2022/03/09 08:19:58;;;;;;;;;;;6.00;99.60;;;;;;5047040;28;19924;-77
2022/03/09 08:22:24;;;;;;;;;;;5.90;98.90;;;;;;5051380;28;19936;-79
2022/03/09 08:24:51;;;;;;;;;;;6.00;99.20;;;;;;5035288;28;19925;-78
2022/03/09 08:27:17;;;;;;;;;;;6.10;98.50;;;;;;5045140;28;19924;-78
2022/03/09 08:29:44;;;;;;;;;;;6.30;98.20;;;;;;5065006;28;19931;-78
2022/03/09 08:32:11;;;;;;;;;;;6.40;98.80;;;;;;5043184;28;20007;-81
2022/03/09 08:34:37;;;;;;;;;;;6.50;98.40;;;;;;5034282;28;20283;-78
2022/03/09 08:37:04;;;;;;;;;;;6.70;97.30;;;;;;5034666;28;19924;-79
2022/03/09 08:39:30;;;;;;;;;;;6.80;97.10;;;;;;5033857;28;20616;-80
2022/03/09 08:41:57;;;;;;;;;;;6.90;96.40;;;;;;5035146;28;19929;-81
2022/03/09 08:44:24;;;;;;;;;;;7.00;96.50;;;;;;5034336;28;19925;-81
2022/03/09 08:46:53;;;;;;;;;;;7.10;96.20;;;;;;5040912;28;19931;-81
2022/03/09 08:49:19;;;;;;;;;;;7.30;95.40;;;;;;5034275;28;19925;-81
2022/03/09 08:51:46;;;;;;;;;;;7.30;94.80;;;;;;5034906;28;19925;-80
2022/03/09 08:54:12;;;;;;;;;;;7.40;93.80;;;;;;5034289;28;19929;-83
2022/03/09 08:56:39;;;;;;;;;;;7.50;94.60;;;;;;5051884;28;19924;-80
2022/03/09 08:59:05;;;;;;;;;;;7.60;95.10;;;;;;5034273;28;20367;-80
2022/03/09 09:01:32;;;;;;;;;;;7.70;94.50;;;;;;5043557;28;19991;-81
2022/03/09 09:03:59;;;;;;;;;;;7.80;94.80;;;;;;5043199;28;19935;-81
2022/03/09 09:06:26;;;;;;;;;;;8.00;94.40;;;;;;5040297;28;20442;-81
2022/03/09 09:08:52;;;;;;;;;;;8.00;93.70;;;;;;5056793;28;20387;-80
2022/03/09 09:11:19;;;;;;;;;;;8.10;92.60;;;;;;5040834;28;19928;-81
2022/03/09 09:13:45;;;;;;;;;;;8.20;93.00;;;;;;5043217;28;19925;-82
2022/03/09 09:16:12;;;;;;;;;;;8.20;91.90;;;;;;5047672;28;19939;-81
2022/03/09 09:18:39;;;;;;;;;;;8.30;92.70;;;;;;5062994;28;19925;-81
2022/03/09 09:21:05;;;;;;;;;;;8.40;92.40;;;;;;5045781;28;20000;-81
2022/03/09 09:23:32;;;;;;;;;;;8.50;92.60;;;;;;5046231;28;19929;-80
2022/03/09 09:25:59;;;;;;;;;;;8.60;92.50;;;;;;5062045;28;19928;-81
2022/03/09 09:28:25;;;;;;;;;;;8.60;91.20;;;;;;5048237;28;19943;-81
2022/03/09 09:30:52;;;;;;;;;;;8.70;91.00;;;;;;5048456;28;19924;-81
2022/03/09 09:33:19;;;;;;;;;;;8.80;91.80;;;;;;5055625;28;19924;-81
2022/03/09 09:35:45;;;;;;;;;;;8.80;91.40;;;;;;5040709;28;19934;-82
2022/03/09 09:38:12;;;;;;;;;;;8.90;89.20;;;;;;5041927;28;19925;-81
2022/03/09 09:40:43;;;;;;;;;;;8.90;88.00;;;;;;5056228;28;19936;-82
2022/03/09 09:43:09;;;;;;;;;;;9.10;86.20;;;;;;5044153;28;19966;-81
2022/03/09 09:45:39;;;;;;;;;;;9.20;85.20;;;;;;5044867;28;19925;-81
2022/03/09 09:48:06;;;;;;;;;;;9.20;84.70;;;;;;5042772;28;19924;-81
2022/03/09 09:50:32;;;;;;;;;;;9.20;82.50;;;;;;5041772;28;20288;-80
2022/03/09 09:52:59;;;;;;;;;;;9.20;83.30;;;;;;5042614;28;20021;-82
2022/03/09 09:55:26;;;;;;;;;;;9.30;83.40;;;;;;5045629;28;19924;-81
2022/03/09 09:57:52;;;;;;;;;;;9.50;82.70;;;;;;5063648;28;20432;-81
2022/03/09 10:00:19;;;;;;;;;;;9.60;81.60;;;;;;5040382;28;19925;-83
2022/03/09 10:02:46;;;;;;;;;;;9.70;81.00;;;;;;5038486;28;19929;-81
2022/03/09 10:05:14;;;;;;;;;;;9.70;80.30;;;;;;5064363;28;19936;-81
2022/03/09 10:07:40;;;;;;;;;;;9.80;80.90;;;;;;5057392;28;19935;-80
2022/03/09 10:10:07;;;;;;;;;;;9.80;74.80;;;;;;5061296;28;19929;-81
2022/03/09 10:12:34;;;;;;;;;;;9.90;76.00;;;;;;5042496;28;19925;-82
2022/03/09 10:15:02;;;;;;;;;;;9.90;76.70;;;;;;5062815;28;19999;-82
2022/03/09 10:17:29;;;;;;;;;;;9.90;75.70;;;;;;5044451;28;20303;-82
2022/03/09 10:19:58;;;;;;;;;;;10.10;74.70;;;;;;5046235;28;19932;-82
2022/03/09 10:22:24;;;;;;;;;;;10.10;74.20;;;;;;5044294;28;19924;-82
2022/03/09 10:24:51;;;;;;;;;;;10.20;72.70;;;;;;5041921;28;19932;-80
2022/03/09 10:27:17;;;;;;;;;;;10.10;70.20;;;;;;5039816;28;19925;-80
2022/03/09 10:29:44;;;;;;;;;;;10.20;73.70;;;;;;5068601;28;19924;-80
2022/03/09 10:32:10;;;;;;;;;;;10.30;71.90;;;;;;5045154;28;19979;-80
2022/03/09 10:34:37;;;;;;;;;;;10.30;70.90;;;;;;5049134;28;19939;-80
2022/03/09 10:37:03;;;;;;;;;;;10.30;71.00;;;;;;5045434;28;19932;-80
2022/03/09 10:39:30;;;;;;;;;;;10.40;70.30;;;;;;5045271;28;19925;-79
2022/03/09 10:41:58;;;;;;;;;;;10.50;69.40;;;;;;5047293;28;19932;-81
2022/03/09 10:44:25;;;;;;;;;;;10.50;67.30;;;;;;5058821;28;19980;-80
2022/03/09 10:46:51;;;;;;;;;;;10.50;67.30;;;;;;5046102;28;20295;-81
2022/03/09 10:49:19;;;;;;;;;;;10.50;68.00;;;;;;5048037;28;19924;-81
2022/03/09 10:51:45;;;;;;;;;;;10.60;68.70;;;;;;5045303;28;19929;-81
2022/03/09 10:54:16;;;;;;;;;;;10.70;69.40;;;;;;5060674;28;19925;-80
2022/03/09 10:56:42;;;;;;;;;;;10.80;68.10;;;;;;5040137;28;20022;-82
2022/03/09 10:59:09;;;;;;;;;;;10.80;65.40;;;;;;5044531;28;19932;-82
2022/03/09 11:01:36;;;;;;;;;;;10.80;66.60;;;;;;5038135;28;20051;-85
2022/03/09 11:04:03;;;;;;;;;;;10.90;66.00;;;;;;5044750;28;19925;-81
2022/03/09 11:06:29;;;;;;;;;;;10.90;65.30;;;;;;5038020;28;19925;-82
2022/03/09 11:08:56;;;;;;;;;;;11.00;66.20;;;;;;5048275;28;19932;-82
2022/03/09 11:11:23;;;;;;;;;;;10.90;64.60;;;;;;5045521;28;19925;-83
2022/03/09 11:13:49;;;;;;;;;;;10.90;61.60;;;;;;5063705;28;19924;-80
2022/03/09 11:16:16;;;;;;;;;;;11.00;64.90;;;;;;5053622;28;19924;-80
2022/03/09 11:18:42;;;;;;;;;;;10.90;61.90;;;;;;5047022;28;20800;-80
2022/03/09 11:21:09;;;;;;;;;;;11.00;63.70;;;;;;5040783;28;20257;-80
2022/03/09 11:23:36;;;;;;;;;;;11.10;62.70;;;;;;5047930;28;20296;-79
2022/03/09 11:26:02;;;;;;;;;;;11.10;62.10;;;;;;5036194;28;19925;-79
2022/03/09 11:28:29;;;;;;;;;;;11.00;61.80;;;;;;5064453;28;20264;-80
2022/03/09 11:30:55;;;;;;;;;;;11.10;61.00;;;;;;5038037;28;19925;-80
2022/03/09 11:33:22;;;;;;;;;;;11.20;61.20;;;;;;5066429;28;19931;-81
2022/03/09 11:35:49;;;;;;;;;;;11.30;62.10;;;;;;5056632;28;20319;-80
2022/03/09 11:38:15;;;;;;;;;;;11.30;61.00;;;;;;5060058;28;19932;-80
2022/03/09 11:40:42;;;;;;;;;;;11.30;63.30;;;;;;5045812;28;19931;-80
2022/03/09 11:43:08;;;;;;;;;;;11.40;62.60;;;;;;5048082;28;19925;-80
2022/03/09 11:45:35;;;;;;;;;;;11.50;61.10;;;;;;5065532;28;19929;-80
2022/03/09 11:48:02;;;;;;;;;;;11.50;61.70;;;;;;5046888;28;19925;-80
2022/03/09 11:50:28;;;;;;;;;;;11.60;60.90;;;;;;5046927;28;19924;-82
2022/03/09 11:52:55;;;;;;;;;;;11.60;62.90;;;;;;5044495;28;19931;-80
2022/03/09 11:55:22;;;;;;;;;;;11.60;60.90;;;;;;5063216;28;20014;-80
2022/03/09 11:57:48;;;;;;;;;;;11.60;62.50;;;;;;5060704;28;19952;-83
2022/03/09 12:00:15;;;;;;;;;;;11.70;60.00;;;;;;5059055;28;19947;-81
2022/03/09 12:02:41;;;;;;;;;;;11.80;58.60;;;;;;5044913;28;19947;-80
2022/03/09 12:05:08;;;;;;;;;;;11.70;60.30;;;;;;5047445;28;19925;-80
2022/03/09 12:07:35;;;;;;;;;;;11.80;60.90;;;;;;5041971;28;19929;-78
2022/03/09 12:10:02;;;;;;;;;;;11.80;57.80;;;;;;5052819;28;20012;-79
2022/03/09 12:12:28;;;;;;;;;;;11.80;59.00;;;;;;5034541;28;19932;-83
2022/03/09 12:14:55;;;;;;;;;;;11.90;58.50;;;;;;5042865;28;19932;-79
2022/03/09 12:17:21;;;;;;;;;;;11.90;59.80;;;;;;5037354;28;19932;-77
2022/03/09 12:19:48;;;;;;;;;;;12.00;59.40;;;;;;5052451;28;19925;-79
2022/03/09 12:22:15;;;;;;;;;;;12.00;55.40;;;;;;5053020;28;19928;-84
2022/03/09 12:24:41;;;;;;;;;;;12.00;58.00;;;;;;5034957;28;19925;-82
2022/03/09 12:27:08;;;;;;;;;;;12.00;58.30;;;;;;5041721;28;19929;-79
2022/03/09 12:29:35;;;;;;;;;;;12.10;58.60;;;;;;5055512;28;19933;-79
2022/03/09 12:32:01;;;;;;;;;;;12.10;58.50;;;;;;5060327;28;19986;-79
2022/03/09 12:34:28;;;;;;;;;;;12.20;56.10;;;;;;5065034;28;19924;-83
2022/03/09 12:36:54;;;;;;;;;;;12.20;54.40;;;;;;5034052;28;19929;-79
2022/03/09 12:39:21;;;;;;;;;;;12.10;53.80;;;;;;5052233;28;19925;-80
2022/03/09 12:41:47;;;;;;;;;;;12.10;53.40;;;;;;5034014;28;20346;-78
2022/03/09 12:44:14;;;;;;;;;;;12.10;56.90;;;;;;5052177;28;21089;-78
2022/03/09 12:46:40;;;;;;;;;;;12.20;56.50;;;;;;5034118;28;20007;-79
2022/03/09 12:49:07;;;;;;;;;;;12.30;54.40;;;;;;5034766;28;19971;-80
2022/03/09 12:51:33;;;;;;;;;;;12.30;54.40;;;;;;5034169;28;19925;-84
2022/03/09 12:54:00;;;;;;;;;;;12.30;54.60;;;;;;5045498;28;19924;-80
2022/03/09 12:56:28;;;;;;;;;;;12.30;54.80;;;;;;5034991;28;19925;-80
2022/03/09 12:58:54;;;;;;;;;;;12.30;54.60;;;;;;5033417;28;20019;-80
2022/03/09 13:01:22;;;;;;;;;;;12.40;53.40;;;;;;5051654;28;20174;-80
2022/03/09 13:03:49;;;;;;;;;;;12.40;52.90;;;;;;5051694;28;19932;-80
2022/03/09 13:06:16;;;;;;;;;;;12.50;53.60;;;;;;5040178;28;19931;-80
2022/03/09 13:08:42;;;;;;;;;;;12.40;52.90;;;;;;5035999;28;19925;-83
2022/03/09 13:11:09;;;;;;;;;;;12.40;51.90;;;;;;5035427;28;19925;-80
2022/03/09 13:13:35;;;;;;;;;;;12.50;52.40;;;;;;5051519;28;19956;-80
2022/03/09 13:16:03;;;;;;;;;;;12.50;52.00;;;;;;5034355;28;19929;-81
2022/03/09 13:18:29;;;;;;;;;;;12.60;52.60;;;;;;5034492;28;19932;-80
2022/03/09 13:20:57;;;;;;;;;;;12.60;52.60;;;;;;5038157;28;20023;-80
2022/03/09 13:23:24;;;;;;;;;;;12.60;51.50;;;;;;5044415;28;20003;-80
2022/03/09 13:25:50;;;;;;;;;;;12.70;51.10;;;;;;5040645;28;19936;-80
2022/03/09 13:28:17;;;;;;;;;;;12.70;51.60;;;;;;5066478;28;19931;-79
2022/03/09 13:30:43;;;;;;;;;;;12.70;51.30;;;;;;5051153;28;19953;-81
2022/03/09 13:33:10;;;;;;;;;;;12.70;50.20;;;;;;5034360;28;19925;-79
2022/03/09 13:35:37;;;;;;;;;;;12.70;50.40;;;;;;5037527;28;19931;-81
2022/03/09 13:38:03;;;;;;;;;;;12.70;50.40;;;;;;5043205;28;19925;-80
2022/03/09 13:40:30;;;;;;;;;;;12.70;50.60;;;;;;5041994;28;19924;-80
2022/03/09 13:42:57;;;;;;;;;;;12.60;48.90;;;;;;5033787;28;19932;-79
2022/03/09 13:45:23;;;;;;;;;;;12.60;48.50;;;;;;5059639;28;19925;-79
2022/03/09 13:47:50;;;;;;;;;;;12.60;48.90;;;;;;5059296;28;20372;-80
2022/03/09 13:50:16;;;;;;;;;;;12.60;49.50;;;;;;5063711;28;19932;-78
2022/03/09 13:52:43;;;;;;;;;;;12.60;50.00;;;;;;5053935;28;19925;-82
2022/03/09 13:55:09;;;;;;;;;;;12.70;49.40;;;;;;5034016;28;19925;-80
2022/03/09 13:57:37;;;;;;;;;;;12.70;50.00;;;;;;5051574;28;19925;-83
2022/03/09 14:00:03;;;;;;;;;;;12.60;48.00;;;;;;5035909;28;19924;-78
2022/03/09 14:02:30;;;;;;;;;;;12.70;48.80;;;;;;5037663;28;19924;-80
2022/03/09 14:04:56;;;;;;;;;;;12.70;48.30;;;;;;5037231;28;19925;-80
2022/03/09 14:07:23;;;;;;;;;;;12.70;48.40;;;;;;5037519;28;19931;-80
2022/03/09 14:09:49;;;;;;;;;;;12.60;48.50;;;;;;5054738;28;19925;-80
2022/03/09 14:12:16;;;;;;;;;;;12.60;49.30;;;;;;5033942;28;19925;-80
2022/03/09 14:14:43;;;;;;;;;;;12.60;48.30;;;;;;5042072;28;19931;-81
2022/03/09 14:17:10;;;;;;;;;;;12.50;48.50;;;;;;5046972;28;19925;-80
2022/03/09 14:19:36;;;;;;;;;;;12.50;49.40;;;;;;5046129;28;19932;-80
2022/03/09 14:22:03;;;;;;;;;;;12.60;48.70;;;;;;5044397;28;19932;-79
2022/03/09 14:24:30;;;;;;;;;;;12.50;48.10;;;;;;5036751;28;19925;-80